DLH477 CYVR-EDDM
Flight info
| Callsign | DLH477 |
|---|---|
| Flight time | N/A |
| Altitude | 37000 |
| Route | SEATN DCT PARQE/N0486F360 DCT YQU/N0484F370 J528 YSM DCT 61N110W 65N100W 67N090W 6830N08000W/N0484F390 6930N07000W/M084F390 DCT ADSAM DCT 70N060W 70N050W 6930N04000W 6830N03000W 67N020W 65N010W DCT GUNPA/N0484F390 DCT ATNAK/N0486F410 DCT OMIMA DCT TIVUN DCT DODEN/N0457F330 DCT TABUM DCT BOMBI T104 HAREM/N0419F270 T104 ROKIL ROKIL1B |
| Aircraft | A359/H-SDE2E3GHIJ3J4J5LM1ORWXY/LB1D1 |
Departure
| Time | N/A |
|---|---|
| Airport | Vancouver International Airport (CYVR) |
Arrival
| Time | 2026-05-06 06:48 |
|---|---|
| Airport | Munich Airport (EDDM) |
| Time | Latitude | Longitude | Altitude | Speed | Heading |
|---|---|---|---|---|---|
| 2026-05-06 06:17 | 49.76455 | 9.21087 | 36788 ft | 480 kts | 141° |
| 2026-05-06 06:17 | 49.73976 | 9.24547 | 36788 ft | 480 kts | 141° |
| 2026-05-06 06:18 | 49.69021 | 9.31447 | 36789 ft | 480 kts | 141° |
| 2026-05-06 06:18 | 49.64060 | 9.38345 | 36789 ft | 481 kts | 140° |
| 2026-05-06 06:19 | 49.59388 | 9.45685 | 36781 ft | 483 kts | 134° |
| 2026-05-06 06:19 | 49.54955 | 9.53477 | 36779 ft | 484 kts | 134° |
| 2026-05-06 06:20 | 49.50530 | 9.61230 | 36783 ft | 484 kts | 134° |
| 2026-05-06 06:20 | 49.46094 | 9.68991 | 36788 ft | 483 kts | 135° |
| 2026-05-06 06:21 | 49.41673 | 9.76717 | 36794 ft | 482 kts | 135° |
| 2026-05-06 06:21 | 49.38084 | 9.82950 | 36792 ft | 482 kts | 135° |
| 2026-05-06 06:22 | 49.33630 | 9.90649 | 36744 ft | 484 kts | 135° |
| 2026-05-06 06:22 | 49.31406 | 9.94480 | 36495 ft | 483 kts | 135° |
| 2026-05-06 06:22 | 49.29185 | 9.98303 | 36195 ft | 483 kts | 136° |
| 2026-05-06 06:23 | 49.26957 | 10.02133 | 35796 ft | 483 kts | 136° |
| 2026-05-06 06:23 | 49.24726 | 10.05962 | 35374 ft | 483 kts | 136° |
| 2026-05-06 06:23 | 49.22473 | 10.09821 | 34953 ft | 483 kts | 136° |
| 2026-05-06 06:23 | 49.20271 | 10.13587 | 34527 ft | 482 kts | 136° |
| 2026-05-06 06:24 | 49.18045 | 10.17396 | 34046 ft | 480 kts | 136° |
| 2026-05-06 06:24 | 49.15842 | 10.21162 | 33512 ft | 476 kts | 137° |
| 2026-05-06 06:24 | 49.13631 | 10.24921 | 32765 ft | 476 kts | 138° |
| 2026-05-06 06:24 | 49.11376 | 10.28602 | 31958 ft | 475 kts | 139° |
| 2026-05-06 06:25 | 49.09104 | 10.32237 | 31223 ft | 473 kts | 140° |
| 2026-05-06 06:25 | 49.06861 | 10.35813 | 30501 ft | 469 kts | 140° |
| 2026-05-06 06:25 | 49.02455 | 10.42850 | 29656 ft | 452 kts | 139° |
| 2026-05-06 06:26 | 49.00321 | 10.46261 | 29257 ft | 445 kts | 139° |
| 2026-05-06 06:26 | 48.98206 | 10.49640 | 28867 ft | 438 kts | 139° |
| 2026-05-06 06:26 | 48.96134 | 10.52937 | 28483 ft | 433 kts | 139° |
| 2026-05-06 06:26 | 48.94053 | 10.56247 | 28078 ft | 428 kts | 139° |
| 2026-05-06 06:27 | 48.92002 | 10.59512 | 27698 ft | 423 kts | 139° |
| 2026-05-06 06:27 | 48.90004 | 10.62691 | 27328 ft | 419 kts | 139° |
| 2026-05-06 06:27 | 48.87998 | 10.65860 | 26943 ft | 415 kts | 140° |
| 2026-05-06 06:27 | 48.86005 | 10.69013 | 26577 ft | 411 kts | 140° |
| 2026-05-06 06:28 | 48.84038 | 10.72131 | 26208 ft | 408 kts | 139° |
| 2026-05-06 06:28 | 48.82072 | 10.75242 | 25834 ft | 406 kts | 139° |
| 2026-05-06 06:28 | 48.80147 | 10.78285 | 25471 ft | 403 kts | 139° |
| 2026-05-06 06:28 | 48.78200 | 10.81344 | 25102 ft | 401 kts | 139° |
| 2026-05-06 06:29 | 48.76275 | 10.84364 | 24742 ft | 399 kts | 139° |
| 2026-05-06 06:29 | 48.74351 | 10.87378 | 24378 ft | 397 kts | 139° |
| 2026-05-06 06:29 | 48.72440 | 10.90367 | 24021 ft | 395 kts | 139° |
| 2026-05-06 06:29 | 48.70532 | 10.93350 | 23656 ft | 394 kts | 139° |
| 2026-05-06 06:30 | 48.68621 | 10.96333 | 23277 ft | 392 kts | 139° |
| 2026-05-06 06:30 | 48.66723 | 10.99290 | 22878 ft | 389 kts | 139° |
| 2026-05-06 06:30 | 48.64858 | 11.02193 | 22503 ft | 386 kts | 139° |
| 2026-05-06 06:30 | 48.62978 | 11.05109 | 22122 ft | 384 kts | 139° |
| 2026-05-06 06:31 | 48.61136 | 11.07970 | 21757 ft | 381 kts | 139° |
| 2026-05-06 06:31 | 48.59269 | 11.10766 | 21392 ft | 377 kts | 142° |
| 2026-05-06 06:31 | 48.57290 | 11.13353 | 21031 ft | 372 kts | 146° |
| 2026-05-06 06:31 | 48.55257 | 11.15653 | 20661 ft | 368 kts | 149° |
| 2026-05-06 06:32 | 48.53154 | 11.17820 | 20265 ft | 365 kts | 149° |
| 2026-05-06 06:32 | 48.51087 | 11.20130 | 19491 ft | 374 kts | 145° |
| 2026-05-06 06:32 | 48.49104 | 11.22633 | 18673 ft | 382 kts | 141° |
| 2026-05-06 06:32 | 48.47095 | 11.25348 | 18070 ft | 381 kts | 141° |
| 2026-05-06 06:33 | 48.45108 | 11.28040 | 17571 ft | 378 kts | 141° |
| 2026-05-06 06:33 | 48.43218 | 11.30879 | 17018 ft | 380 kts | 129° |
| 2026-05-06 06:33 | 48.42034 | 11.34412 | 16540 ft | 383 kts | 108° |
| 2026-05-06 06:33 | 48.41719 | 11.38395 | 16094 ft | 385 kts | 89° |
| 2026-05-06 06:34 | 48.42019 | 11.42427 | 15644 ft | 382 kts | 84° |
| 2026-05-06 06:34 | 48.42370 | 11.46430 | 15138 ft | 380 kts | 84° |
| 2026-05-06 06:34 | 48.42714 | 11.50400 | 14656 ft | 377 kts | 84° |
| 2026-05-06 06:34 | 48.43040 | 11.54287 | 14201 ft | 374 kts | 84° |
| 2026-05-06 06:35 | 48.43352 | 11.58112 | 13747 ft | 371 kts | 85° |
| 2026-05-06 06:35 | 48.43662 | 11.61981 | 13277 ft | 368 kts | 85° |
| 2026-05-06 06:35 | 48.43960 | 11.65759 | 12822 ft | 365 kts | 85° |
| 2026-05-06 06:35 | 48.44255 | 11.69540 | 12355 ft | 362 kts | 86° |
| 2026-05-06 06:36 | 48.44545 | 11.73274 | 11904 ft | 359 kts | 85° |
| 2026-05-06 06:36 | 48.44830 | 11.76982 | 11448 ft | 356 kts | 85° |
| 2026-05-06 06:36 | 48.45113 | 11.80671 | 10995 ft | 352 kts | 86° |
| 2026-05-06 06:36 | 48.45392 | 11.84320 | 10530 ft | 349 kts | 86° |
| 2026-05-06 06:37 | 48.45670 | 11.87956 | 10241 ft | 341 kts | 86° |
| 2026-05-06 06:37 | 48.45934 | 11.91427 | 10027 ft | 330 kts | 86° |
| 2026-05-06 06:37 | 48.46189 | 11.94781 | 9701 ft | 314 kts | 86° |
| 2026-05-06 06:37 | 48.46430 | 11.97981 | 9431 ft | 300 kts | 86° |
| 2026-05-06 06:38 | 48.46658 | 12.01042 | 9162 ft | 289 kts | 86° |
| 2026-05-06 06:38 | 48.46878 | 12.04025 | 8789 ft | 289 kts | 86° |
| 2026-05-06 06:38 | 48.47099 | 12.07034 | 8532 ft | 286 kts | 86° |
| 2026-05-06 06:38 | 48.47317 | 12.09991 | 8264 ft | 284 kts | 86° |
| 2026-05-06 06:39 | 48.47532 | 12.12909 | 7930 ft | 283 kts | 86° |
| 2026-05-06 06:39 | 48.47749 | 12.15870 | 7592 ft | 282 kts | 86° |
| 2026-05-06 06:39 | 48.47961 | 12.18765 | 7292 ft | 280 kts | 85° |
| 2026-05-06 06:39 | 48.48174 | 12.21673 | 7036 ft | 276 kts | 85° |
| 2026-05-06 06:40 | 48.48381 | 12.24505 | 6886 ft | 268 kts | 85° |
| 2026-05-06 06:40 | 48.48578 | 12.27225 | 6717 ft | 260 kts | 85° |
| 2026-05-06 06:40 | 48.48772 | 12.29886 | 6472 ft | 249 kts | 86° |
| 2026-05-06 06:40 | 48.48697 | 12.32400 | 6248 ft | 236 kts | 111° |
| 2026-05-06 06:41 | 48.47823 | 12.34356 | 6169 ft | 224 kts | 143° |
| 2026-05-06 06:41 | 48.46422 | 12.35222 | 6012 ft | 217 kts | 176° |
| 2026-05-06 06:41 | 48.44970 | 12.34740 | 5750 ft | 218 kts | 211° |
| 2026-05-06 06:41 | 48.43874 | 12.33163 | 5486 ft | 220 kts | 230° |
| 2026-05-06 06:42 | 48.43016 | 12.31225 | 5171 ft | 225 kts | 240° |
| 2026-05-06 06:42 | 48.42342 | 12.29128 | 5019 ft | 224 kts | 244° |
| 2026-05-06 06:42 | 48.41705 | 12.26992 | 5001 ft | 225 kts | 244° |
| 2026-05-06 06:42 | 48.41095 | 12.24801 | 4997 ft | 226 kts | 246° |
| 2026-05-06 06:43 | 48.40453 | 12.22646 | 4995 ft | 227 kts | 242° |
| 2026-05-06 06:43 | 48.39807 | 12.20490 | 4992 ft | 228 kts | 249° |
| 2026-05-06 06:43 | 48.39390 | 12.18178 | 4988 ft | 228 kts | 259° |
| 2026-05-06 06:43 | 48.39218 | 12.15864 | 4982 ft | 220 kts | 264° |
| 2026-05-06 06:44 | 48.39114 | 12.13579 | 4987 ft | 219 kts | 264° |
| 2026-05-06 06:44 | 48.38988 | 12.11307 | 4985 ft | 218 kts | 263° |
| 2026-05-06 06:44 | 48.38831 | 12.09018 | 4899 ft | 219 kts | 263° |
| 2026-05-06 06:44 | 48.38654 | 12.06746 | 4638 ft | 222 kts | 262° |
| 2026-05-06 06:45 | 48.38463 | 12.04422 | 4327 ft | 223 kts | 262° |
| 2026-05-06 06:45 | 48.38275 | 12.02153 | 4038 ft | 217 kts | 262° |
| 2026-05-06 06:45 | 48.38094 | 11.99944 | 3766 ft | 212 kts | 262° |
| 2026-05-06 06:45 | 48.37922 | 11.97812 | 3493 ft | 201 kts | 263° |
| 2026-05-06 06:46 | 48.37757 | 11.95757 | 3285 ft | 194 kts | 263° |
| 2026-05-06 06:46 | 48.37600 | 11.93772 | 3017 ft | 188 kts | 264° |
| 2026-05-06 06:46 | 48.37452 | 11.91896 | 2731 ft | 179 kts | 263° |
| 2026-05-06 06:46 | 48.37309 | 11.90081 | 2484 ft | 165 kts | 264° |
| 2026-05-06 06:47 | 48.37182 | 11.88456 | 2288 ft | 152 kts | 263° |
| 2026-05-06 06:47 | 48.37078 | 11.87120 | 2119 ft | 148 kts | 263° |
| 2026-05-06 06:47 | 48.36957 | 11.85589 | 1906 ft | 148 kts | 263° |
| 2026-05-06 06:47 | 48.36836 | 11.84069 | 1692 ft | 146 kts | 263° |
| 2026-05-06 06:48 | 48.36720 | 11.82552 | 1527 ft | 148 kts | 263° |
| 2026-05-06 06:48 | 48.36601 | 11.81044 | 1452 ft | 128 kts | 263° |
| 2026-05-06 06:48 | 48.36523 | 11.79996 | 1455 ft | 76 kts | 264° |
| 2026-05-06 06:48 | 48.36485 | 11.79472 | 1459 ft | 25 kts | 263° |
| 2026-05-06 06:49 | 48.36465 | 11.79217 | 1462 ft | 24 kts | 263° |
| 2026-05-06 06:49 | 48.36423 | 11.78970 | 1464 ft | 24 kts | 244° |
| 2026-05-06 06:49 | 48.36358 | 11.78820 | 1464 ft | 15 kts | 234° |
| 2026-05-06 06:49 | 48.36293 | 11.78684 | 1465 ft | 16 kts | 234° |
| 2026-05-06 06:50 | 48.36223 | 11.78553 | 1466 ft | 16 kts | 230° |
| 2026-05-06 06:50 | 48.36129 | 11.78481 | 1469 ft | 15 kts | 182° |
| 2026-05-06 06:50 | 48.36054 | 11.78498 | 1472 ft | 8 kts | 143° |
| 2026-05-06 06:50 | 48.36038 | 11.78586 | 1473 ft | 10 kts | 86° |
| 2026-05-06 06:51 | 48.36047 | 11.78710 | 1471 ft | 14 kts | 83° |
| 2026-05-06 06:51 | 48.36062 | 11.78900 | 1470 ft | 21 kts | 83° |
| 2026-05-06 06:51 | 48.36080 | 11.79127 | 1469 ft | 15 kts | 83° |
| 2026-05-06 06:51 | 48.36089 | 11.79265 | 1469 ft | 11 kts | 95° |
| 2026-05-06 06:52 | 48.36039 | 11.79323 | 1469 ft | 9 kts | 167° |
| 2026-05-06 06:52 | 48.35976 | 11.79334 | 1471 ft | 9 kts | 174° |
| 2026-05-06 06:52 | 48.35910 | 11.79367 | 1471 ft | 10 kts | 163° |
| 2026-05-06 06:52 | 48.35848 | 11.79386 | 1471 ft | 6 kts | 173° |
| 2026-05-06 06:53 | 48.35809 | 11.79382 | 1471 ft | 5 kts | 212° |
| 2026-05-06 06:53 | 48.35788 | 11.79323 | 1471 ft | 7 kts | 259° |
| 2026-05-06 06:53 | 48.35784 | 11.79279 | 1472 ft | 3 kts | 263° |
| 2026-05-06 06:53 | 48.35782 | 11.79255 | 1472 ft | 0 kts | 263° |
| 2026-05-06 06:54 | 48.35782 | 11.79252 | 1472 ft | 0 kts | 263° |